createdAt,value
2023-04-18T00:02:54.300Z,5.45
2023-04-18T00:07:53.536Z,5.80
2023-04-18T00:12:52.488Z,5.43
2023-04-18T00:17:51.381Z,4.80
2023-04-18T00:22:53.231Z,4.88
2023-04-18T00:27:52.050Z,5.05
2023-04-18T00:32:51.020Z,4.75
2023-04-18T00:37:52.009Z,5.55
2023-04-18T00:42:50.811Z,6.07
2023-04-18T00:47:49.740Z,5.00
2023-04-18T00:52:49.106Z,5.60
2023-04-18T00:57:49.174Z,5.05
2023-04-18T01:02:50.027Z,5.35
2023-04-18T01:07:50.933Z,5.43
2023-04-18T01:12:51.088Z,4.38
2023-04-18T01:17:49.975Z,6.80
2023-04-18T01:22:48.934Z,6.20
2023-04-18T01:27:49.076Z,5.88
2023-04-18T01:32:47.898Z,7.18
2023-04-18T01:37:46.834Z,5.70
2023-04-18T01:42:45.656Z,6.20
2023-04-18T01:47:46.164Z,6.13
2023-04-18T01:52:45.140Z,5.80
2023-04-18T01:57:44.218Z,6.90
2023-04-18T02:02:43.354Z,7.72
2023-04-18T02:07:43.904Z,6.03
2023-04-18T02:12:43.213Z,5.88
2023-04-18T02:17:42.503Z,6.05
2023-04-18T02:22:41.356Z,5.30
2023-04-18T02:27:41.596Z,5.72
2023-04-18T02:32:40.473Z,5.63
2023-04-18T02:37:39.300Z,5.63
2023-04-18T02:42:38.140Z,7.65
2023-04-18T02:47:51.293Z,6.15
2023-04-18T02:52:54.003Z,5.60
2023-04-18T02:57:56.046Z,5.50
2023-04-18T03:03:31.486Z,5.82
2023-04-18T03:08:50.136Z,5.50
2023-04-18T03:13:49.371Z,5.20
2023-04-18T03:18:50.320Z,4.70
2023-04-18T03:23:50.311Z,4.35
2023-04-18T03:28:49.342Z,5.03
2023-04-18T03:33:51.711Z,4.90
2023-04-18T03:38:52.008Z,5.13
2023-04-18T03:43:51.121Z,5.25
2023-04-18T03:48:51.330Z,6.15
2023-04-18T03:53:50.380Z,7.82
2023-04-18T03:58:50.201Z,6.13
2023-04-18T04:03:52.116Z,6.35
2023-04-18T04:08:52.001Z,7.13
2023-04-18T04:13:55.381Z,6.57
2023-04-18T04:19:00.877Z,7.32
2023-04-18T04:24:08.617Z,6.63
2023-04-18T04:29:15.356Z,6.72
2023-04-18T04:34:17.835Z,8.05
2023-04-18T04:39:18.120Z,11.07
2023-04-18T04:44:29.723Z,9.23
2023-04-18T04:49:30.216Z,8.27
2023-04-18T04:54:29.190Z,8.90
2023-04-18T04:59:28.609Z,8.15
2023-04-18T05:04:27.730Z,9.10
2023-04-18T05:09:28.318Z,8.75
2023-04-18T05:14:27.801Z,8.45
2023-04-18T05:20:04.070Z,9.52
2023-04-18T05:25:04.478Z,10.95
2023-04-18T05:30:03.245Z,10.63
2023-04-18T05:35:02.211Z,10.43
2023-04-18T05:40:01.295Z,9.57
2023-04-18T05:45:01.637Z,10.50
2023-04-18T05:50:00.490Z,10.02
2023-04-18T05:54:59.519Z,9.25
2023-04-18T05:59:58.411Z,11.35
2023-04-18T06:04:59.693Z,10.60
2023-04-18T06:09:58.958Z,10.80
2023-04-18T06:14:57.866Z,9.82
2023-04-18T06:19:58.123Z,11.50
2023-04-18T06:24:59.850Z,8.45
2023-04-18T06:29:58.885Z,7.88
2023-04-18T06:34:59.209Z,7.65
2023-04-18T06:39:59.192Z,7.50
2023-04-18T06:44:58.202Z,8.13
2023-04-18T06:49:58.501Z,6.32
2023-04-18T06:55:03.232Z,9.05
2023-04-18T07:00:01.922Z,7.13
2023-04-18T07:05:02.214Z,6.97
2023-04-18T07:10:01.114Z,8.27
2023-04-18T07:15:00.057Z,7.80
2023-04-18T07:20:01.588Z,7.68
2023-04-18T07:25:00.759Z,10.10
2023-04-18T07:29:59.568Z,8.02
2023-04-18T07:34:59.295Z,6.80
2023-04-18T07:40:00.115Z,8.77
2023-04-18T07:44:59.794Z,8.15
2023-04-18T07:49:58.450Z,4.20
2023-04-18T07:54:57.424Z,4.28
2023-04-18T07:59:57.746Z,6.85
2023-04-18T08:04:56.800Z,7.38
2023-04-18T08:09:57.180Z,6.78
2023-04-18T08:14:57.771Z,5.85
2023-04-18T08:19:57.147Z,6.63
2023-04-18T08:25:05.105Z,7.35
2023-04-18T08:30:12.183Z,6.18
2023-04-18T08:35:14.491Z,6.75
2023-04-18T08:40:13.883Z,7.15
2023-04-18T08:45:15.204Z,6.80
2023-04-18T08:50:14.093Z,6.13
2023-04-18T08:55:12.904Z,6.50
2023-04-18T09:00:14.605Z,6.75
2023-04-18T09:05:15.307Z,6.00
2023-04-18T09:10:15.675Z,6.15
2023-04-18T09:15:18.988Z,6.57
2023-04-18T09:20:30.730Z,6.03
2023-04-18T09:25:34.612Z,6.17
2023-04-18T09:30:38.273Z,5.72
2023-04-18T09:35:40.903Z,5.72
2023-04-18T09:45:48.856Z,6.28
2023-04-18T09:50:51.068Z,5.90
2023-04-18T09:55:53.261Z,5.13
2023-04-18T10:00:55.786Z,5.93
2023-04-18T10:05:57.678Z,7.95
2023-04-18T10:10:58.995Z,5.97
2023-04-18T10:16:00.189Z,5.68
2023-04-18T10:21:04.571Z,6.60
2023-04-18T10:26:04.518Z,6.88
2023-04-18T10:31:05.837Z,6.55
2023-04-18T10:36:16.303Z,5.57
2023-04-18T10:41:27.204Z,6.32
2023-04-18T10:46:32.604Z,6.22
2023-04-18T10:51:32.061Z,5.55
2023-04-18T10:56:31.109Z,5.70
2023-04-18T11:01:33.558Z,6.45
2023-04-18T11:06:32.526Z,6.13
2023-04-18T11:11:31.577Z,4.95
2023-04-18T11:16:33.456Z,4.65
2023-04-18T11:21:32.330Z,5.05
2023-04-18T11:26:31.343Z,4.78
2023-04-18T11:31:33.275Z,5.72
2023-04-18T11:36:35.287Z,4.63
2023-04-18T11:41:34.239Z,4.07
2023-04-18T11:46:39.552Z,5.70
2023-04-18T11:51:39.997Z,5.55
2023-04-18T11:56:48.623Z,4.93
2023-04-18T12:01:48.321Z,6.43
2023-04-18T12:06:56.119Z,6.45
2023-04-18T12:12:06.705Z,5.13
2023-04-18T12:17:10.483Z,5.88
2023-04-18T12:22:30.669Z,5.63
2023-04-18T12:27:56.225Z,5.25
2023-04-18T12:33:00.572Z,6.22
2023-04-18T12:38:18.613Z,6.38
2023-04-18T12:43:47.830Z,4.50
2023-04-18T12:48:59.536Z,5.75
2023-04-18T12:54:00.733Z,4.65
2023-04-18T13:04:11.940Z,4.93
2023-04-18T13:09:13.821Z,5.22
2023-04-18T13:14:21.618Z,4.60
2023-04-18T13:19:24.952Z,5.07
2023-04-18T13:24:44.516Z,5.07
2023-04-18T13:29:47.581Z,5.15
2023-04-18T13:34:50.576Z,5.55
2023-04-18T13:39:51.795Z,6.50
2023-04-18T13:44:50.857Z,7.00
2023-04-18T13:49:50.494Z,6.00
2023-04-18T13:54:54.437Z,5.82
2023-04-18T14:00:00.387Z,5.22
2023-04-18T14:05:07.011Z,5.00
2023-04-18T14:10:59.343Z,4.63
2023-04-18T14:16:01.174Z,6.55
2023-04-18T14:21:12.270Z,5.57
2023-04-18T14:26:14.065Z,4.38
2023-04-18T14:31:14.101Z,6.10
2023-04-18T14:36:15.014Z,6.60
2023-04-18T14:41:15.478Z,5.75
2023-04-18T14:46:16.495Z,4.85
2023-04-18T14:51:16.340Z,4.88
2023-04-18T14:56:21.267Z,5.35
2023-04-18T15:01:20.197Z,4.22
2023-04-18T15:06:19.650Z,4.95
2023-04-18T15:11:20.550Z,5.00
2023-04-18T15:16:19.873Z,4.38
2023-04-18T15:21:18.898Z,5.75
2023-04-18T15:26:19.884Z,5.53
2023-04-18T15:31:19.114Z,5.43
2023-04-18T15:36:18.930Z,5.90
2023-04-18T15:41:19.383Z,6.13
2023-04-18T15:46:18.523Z,5.45
2023-04-18T15:51:17.618Z,7.00
2023-04-18T15:56:18.549Z,6.70
2023-04-18T16:01:19.614Z,8.02
2023-04-18T16:06:23.536Z,7.80
2023-04-18T16:11:26.245Z,6.18
2023-04-18T16:16:28.584Z,5.65
2023-04-18T16:21:28.366Z,6.03
2023-04-18T16:26:28.857Z,6.93
2023-04-18T16:31:29.233Z,5.60
2023-04-18T16:36:30.157Z,10.70
2023-04-18T16:41:29.126Z,21.52
2023-04-18T16:46:32.516Z,10.38
2023-04-18T16:51:32.857Z,7.13
2023-04-18T16:56:32.082Z,7.13
2023-04-18T17:01:34.053Z,6.78
2023-04-18T17:06:33.480Z,8.00
2023-04-18T17:11:35.400Z,8.25
2023-04-18T17:16:44.707Z,8.85
2023-04-18T17:21:45.626Z,8.50
2023-04-18T17:26:44.911Z,8.07
2023-04-18T17:31:45.906Z,6.50
2023-04-18T17:36:45.140Z,9.15
2023-04-18T17:41:47.316Z,8.02
2023-04-18T17:46:50.004Z,6.78
2023-04-18T17:51:49.594Z,7.78
2023-04-18T17:56:53.310Z,6.05
2023-04-18T18:02:02.520Z,6.57
2023-04-18T18:07:08.946Z,5.88
2023-04-18T18:12:08.253Z,4.95
2023-04-18T18:17:09.426Z,4.80
2023-04-18T18:22:08.704Z,4.22
2023-04-18T18:27:08.471Z,4.30
2023-04-18T18:32:09.264Z,3.80
2023-04-18T18:37:08.548Z,4.57
2023-04-18T18:42:08.407Z,3.70
2023-04-18T18:47:09.080Z,4.00
2023-04-18T18:52:08.088Z,3.90
2023-04-18T18:57:07.168Z,4.68
2023-04-18T19:02:06.212Z,3.67
2023-04-18T19:07:07.449Z,4.68
2023-04-18T19:12:07.176Z,4.57
2023-04-18T19:17:06.147Z,4.38
2023-04-18T19:22:07.010Z,4.68
2023-04-18T19:27:05.938Z,6.50
2023-04-18T19:32:05.200Z,5.60
2023-04-18T19:37:04.612Z,5.47
2023-04-18T19:42:05.814Z,6.00
2023-04-18T19:47:05.240Z,4.65
2023-04-18T19:52:04.256Z,5.53
2023-04-18T19:57:04.779Z,6.18
2023-04-18T20:02:06.046Z,6.03
2023-04-18T20:07:05.982Z,6.10
2023-04-18T20:12:06.718Z,6.22
2023-04-18T20:17:06.022Z,6.38
2023-04-18T20:22:05.254Z,5.85
2023-04-18T20:27:06.380Z,5.82
2023-04-18T20:32:05.905Z,5.30
2023-04-18T20:37:07.507Z,5.50
2023-04-18T20:42:08.172Z,5.82
2023-04-18T20:47:07.231Z,5.32
2023-04-18T20:52:09.653Z,5.10
2023-04-18T20:57:10.109Z,5.95
2023-04-18T21:02:10.101Z,5.88
2023-04-18T21:07:09.565Z,5.85
2023-04-18T21:12:09.995Z,5.40
2023-04-18T21:17:09.882Z,5.85
2023-04-18T21:22:08.875Z,5.13
2023-04-18T21:27:10.591Z,6.63
2023-04-18T21:32:09.684Z,6.35
2023-04-18T21:37:08.539Z,6.25
2023-04-18T21:42:07.543Z,5.53
2023-04-18T21:47:07.908Z,5.68
2023-04-18T21:52:08.537Z,6.72
2023-04-18T21:57:07.487Z,5.80
2023-04-18T22:02:09.015Z,4.97
2023-04-18T22:07:09.030Z,5.95
2023-04-18T22:12:08.767Z,5.80
2023-04-18T22:17:09.380Z,5.57
2023-04-18T22:22:08.252Z,6.78
2023-04-18T22:27:07.253Z,6.22
2023-04-18T22:32:06.843Z,5.53
2023-04-18T22:37:07.903Z,6.25
2023-04-18T22:42:06.892Z,5.78
2023-04-18T22:47:06.430Z,6.60
2023-04-18T22:52:08.406Z,7.30
2023-04-18T22:57:07.499Z,5.23
2023-04-18T23:02:06.930Z,6.35
2023-04-18T23:07:09.191Z,6.80
2023-04-18T23:17:09.219Z,6.20
2023-04-18T23:22:10.067Z,6.60
2023-04-18T23:27:09.397Z,6.97
2023-04-18T23:32:08.694Z,7.40
2023-04-18T23:37:08.335Z,8.35
2023-04-18T23:42:09.266Z,6.38
2023-04-18T23:47:08.696Z,6.75
2023-04-18T23:52:08.667Z,8.30
2023-04-18T23:57:09.590Z,7.38
